Terminal Aerodrome Forecast
Issued by NWS

Home | Current Version | Previous Version | Text Only | Print | Product List | Glossary On
Versions: 1 2 3 4 5 6 7 8 9 10 11 12 13
000
FTUS43 KJKL 251148
TAFSJS
TAF
KSJS 251148Z 2512/2612 16006KT P6SM BKN070
     FM251400 18007G17KT P6SM BKN070 BKN200
     FM251900 18007G17KT P6SM SCT060 BKN200
     FM252300 17005KT P6SM BKN200=

USA.gov is the U.S. government's official web portal to all federal, state and local government web resources and services.